Data for 05/12/2015

Time Sea-Level Adjusted Pressure Absolute Pressure Temperature Relative Humidity Dew Point   
(mb) (inHg) (mb) (inHg) (C) (F) (%) (C) (F)
00:05 1015 29.97 844 24.92 9.8 49.7 28 -7.8 17.9
00:10 1015 29.97 844 24.92 9.8 49.6 28 -7.9 17.8
00:15 1015 29.97 844 24.92 9.7 49.5 28 -8 17.6
00:20 1015 29.97 844 24.92 9.7 49.4 28 -7.9 17.8
00:25 1015 29.97 844 24.92 9.5 49.2 28 -7.9 17.8
00:30 1015 29.97 844 24.92 9.5 49 29 -7.9 17.8
00:35 1015 29.97 844 24.92 9.4 49 28 -8.2 17.2
00:40 1014 29.94 844 24.92 9.5 49 28 -8.1 17.3
00:45 1014 29.94 844 24.92 9.4 48.9 28 -8.2 17.3
00:50 1014 29.94 844 24.92 9.4 48.9 28 -8.2 17.3
00:55 1014 29.94 844 24.92 9.3 48.8 29 -8 17.6
01:00 1014 29.94 843 24.89 9.2 48.6 29 -8.1 17.5
01:05 1014 29.94 843 24.89 9.2 48.5 29 -8 17.7
01:10 1014 29.94 843 24.89 9 48.3 29 -8.1 17.5
01:15 1014 29.94 843 24.89 9 48.2 29 -8.1 17.4
01:20 1014 29.94 843 24.89 9 48.2 29 -8 17.6
01:25 1014 29.94 844 24.92 8.9 48 30 -7.9 17.8
01:30 1014 29.94 844 24.92 8.8 47.9 30 -7.9 17.8
01:35 1014 29.94 844 24.92 8.8 47.8 30 -7.7 18.2
01:40 1014 29.94 843 24.89 8.7 47.6 31 -7.7 18.1
01:45 1014 29.94 843 24.89 8.6 47.6 31 -7.6 18.4
01:50 1014 29.94 843 24.89 8.6 47.4 31 -7.4 18.7
01:55 1014 29.94 843 24.89 8.5 47.3 33 -6.9 19.6
02:00 1014 29.94 843 24.89 8.5 47.2 34 -6.5 20.2
02:05 1014 29.94 843 24.89 8.4 47.1 35 -6.2 20.9
02:10 1014 29.94 843 24.89 8.3 46.9 36 -5.8 21.6
02:15 1014 29.94 844 24.92 8.2 46.7 38 -5.3 22.5
02:20 1014 29.94 844 24.92 8 46.4 41 -4.6 23.8
02:25 1015 29.97 844 24.92 7.8 46 43 -3.9 25
02:30 1015 29.97 844 24.92 7.6 45.6 47 -2.9 26.7
02:35 1015 29.97 844 24.92 7.2 45 52 -2 28.4
02:40 1015 29.97 844 24.92 6.8 44.3 59 -0.7 30.7
02:45 1015 29.97 844 24.92 6.4 43.6 61 -0.5 31.1
02:50 1015 29.97 844 24.92 6 42.8 64 -0.2 31.7
02:55 1015 29.97 844 24.92 5.6 42.2 68 0.3 32.5
03:00 1015 29.97 844 24.92 5.2 41.3 72 0.6 33.1
03:05 1015 29.97 844 24.92 4.8 40.6 76 0.8 33.5
03:10 1015 29.97 844 24.92 4.5 40.2 76 0.7 33.3
03:15 1015 29.97 844 24.92 4.3 39.8 77 0.7 33.3
03:20 1015 29.97 844 24.92 4.2 39.5 77 0.6 33.1
03:25 1015 29.97 844 24.92 4.1 39.3 77 0.4 32.7
03:30 1015 29.97 844 24.92 4 39.2 78 0.5 33
03:35 1015 29.97 844 24.92 3.9 39 79 0.6 33
03:40 1015 29.97 844 24.92 3.8 38.9 79 0.5 32.8
03:45 1015 29.97 844 24.92 3.9 39.1 78 0.4 32.7
03:50 1015 29.97 844 24.92 4 39.2 76 0.1 32.2
03:55 1015 29.97 844 24.92 4 39.2 76 0.1 32.1
04:00 1015 29.97 844 24.92 4 39.3 75 -0.1 31.9
04:05 1015 29.97 844 24.92 4.1 39.3 75 0 32
04:10 1015 29.97 844 24.92 4 39.2 74 -0.1 31.8
04:15 1014 29.94 843 24.89 3.9 39 75 -0 31.9
04:20 1014 29.94 844 24.92 3.9 38.9 76 -0 32
04:25 1015 29.97 844 24.92 3.9 39 75 -0.2 31.7
04:30 1015 29.97 844 24.92 4 39.1 75 -0 31.9
04:35 1015 29.97 844 24.92 4 39.2 75 -0.1 31.8
04:40 1015 29.97 844 24.92 4.1 39.4 74 -0.1 31.8
04:45 1015 29.97 844 24.92 4.2 39.6 75 0.1 32.2
04:50 1014 29.94 844 24.92 4.2 39.6 75 0.2 32.4
04:55 1014 29.94 844 24.92 4.2 39.5 75 0.2 32.3
05:00 1014 29.94 844 24.92 4.1 39.4 76 0.2 32.4
05:05 1014 29.94 844 24.92 4 39.1 76 0.1 32.2
05:10 1015 29.97 844 24.92 4 39.1 76 0.1 32.2
05:15 1015 29.97 844 24.92 4 39.2 76 0.2 32.3
05:20 1015 29.97 844 24.92 4.1 39.3 76 0.3 32.5
05:25 1015 29.97 844 24.92 4.2 39.5 76 0.3 32.5
05:30 1015 29.97 844 24.92 4.2 39.5 76 0.4 32.7
05:35 1015 29.97 844 24.92 4.2 39.6 75 0.2 32.4
05:40 1015 29.97 844 24.92 4.3 39.7 76 0.4 32.6
05:45 1015 29.97 844 24.92 4.3 39.7 75 0.2 32.4
05:50 1015 29.97 844 24.92 4.3 39.7 76 0.3 32.6
05:55 1015 29.97 844 24.92 4.2 39.6 75 0.1 32.2
06:00 1015 29.97 844 24.92 4.2 39.5 75 0.2 32.3
06:05 1015 29.97 844 24.92 4.1 39.4 76 0.2 32.4
06:10 1015 29.97 844 24.92 4.1 39.5 75 0.1 32.1
06:15 1015 29.97 844 24.92 4.3 39.7 74 0.1 32.2
06:20 1015 29.97 844 24.92 4.4 40 74 0.1 32.2
06:25 1015 29.97 844 24.92 4.5 40.1 74 0.3 32.5
06:30 1015 29.97 844 24.92 4.6 40.4 73 0.3 32.5
06:35 1015 29.97 845 24.95 4.7 40.5 73 0.4 32.7
06:40 1015 29.97 845 24.95 4.7 40.5 73 0.3 32.6
06:45 1016 30 845 24.95 4.6 40.4 73 0.3 32.5
06:50 1016 30 845 24.95 4.6 40.4 74 0.4 32.7
06:55 1016 30 845 24.95 4.6 40.2 74 0.3 32.5
07:00 1016 30 845 24.95 4.6 40.2 73 0.2 32.4
07:05 1016 30 845 24.95 4.5 40.2 73 0.1 32.2
07:10 1016 30 845 24.95 4.7 40.4 72 0.1 32.1
07:15 1016 30 845 24.95 4.7 40.5 72 0.1 32.2
07:20 1016 30 845 24.95 4.8 40.6 71 0.1 32.1
07:25 1016 30 845 24.95 4.8 40.7 72 0.2 32.3
07:30 1016 30 845 24.95 5 41.1 72 0.4 32.7
07:35 1016 30 845 24.95 4.9 40.9 72 0.3 32.6
07:40 1016 30 845 24.95 4.9 40.8 72 0.3 32.6
07:45 1016 30 845 24.95 5 41 73 0.5 32.9
07:50 1016 30 845 24.95 5.1 41.1 73 0.6 33.1
07:55 1016 30 845 24.95 5.1 41.2 72 0.5 32.8
08:00 1016 30 845 24.95 5.3 41.6 71 0.6 33.1
08:05 1016 30 845 24.95 5.6 42.1 70 0.6 33.1
08:10 1016 30 845 24.95 5.8 42.5 70 0.8 33.5
08:15 1016 30 845 24.95 5.8 42.5 70 0.8 33.4
08:20 1016 30 845 24.95 6 42.8 70 1 33.7
08:25 1016 30 845 24.95 6.2 43.2 69 1 33.9
08:30 1016 30 845 24.95 6.5 43.7 68 1.1 34
08:35 1016 30 845 24.95 6.6 43.8 68 1.1 34.1
08:40 1016 30 845 24.95 6.9 44.4 67 1.3 34.3
08:45 1016 30 845 24.95 7.1 44.8 66 1.2 34.2
08:50 1016 30 845 24.95 7.4 45.4 66 1.5 34.6
08:55 1016 30 845 24.95 7.4 45.3 65 1.2 34.2
09:00 1016 30 845 24.95 7.4 45.3 64 1.1 34
09:05 1016 30 845 24.95 7.5 45.4 65 1.2 34.2
09:10 1016 30 845 24.95 7.6 45.6 65 1.4 34.5
09:15 1016 30 845 24.95 7.9 46.2 63 1.3 34.3
09:20 1016 30 845 24.95 7.9 46.2 63 1.4 34.5
09:25 1016 30 845 24.95 7.9 46.3 63 1.3 34.3
09:30 1016 30 845 24.95 8.1 46.6 61 1.2 34.1
09:35 1016 30 845 24.95 8.2 46.7 64 1.8 35.2
09:40 1016 30 845 24.95 8.1 46.5 62 1.4 34.5
09:45 1016 30 845 24.95 8.3 46.9 62 1.5 34.7
09:50 1016 30 845 24.95 8.6 47.5 62 1.7 35
09:55 1016 30 845 24.95 9 48.1 60 1.6 34.9
10:00 1016 30 845 24.95 9.1 48.3 60 1.7 35
10:05 1015 29.97 845 24.95 9.1 48.4 61 1.9 35.5
10:10 1015 29.97 845 24.95 9.2 48.6 61 2 35.7
10:15 1015 29.97 845 24.95 9.5 49.2 57 1.5 34.6
10:20 1015 29.97 845 24.95 9.5 49.2 58 1.7 35.1
10:25 1015 29.97 845 24.95 9.6 49.3 60 2.2 36
10:30 1015 29.97 845 24.95 9.5 49.2 59 1.9 35.5
10:35 1015 29.97 845 24.95 9.9 49.7 58 2 35.5
10:40 1015 29.97 845 24.95 9.4 49 61 2.4 36.3
10:45 1015 29.97 845 24.95 10 50.1 58 2.2 36
10:50 1015 29.97 844 24.92 9.6 49.3 60 2.3 36.1
10:55 1015 29.97 844 24.92 9.9 49.8 58 2 35.5
11:00 1015 29.97 844 24.92 9.6 49.4 58 1.9 35.4
11:05 1015 29.97 844 24.92 9.6 49.3 59 2 35.6
11:10 1015 29.97 844 24.92 9.8 49.6 60 2.3 36.2
11:15 1015 29.97 844 24.92 9.8 49.6 59 2.2 36
11:20 1015 29.97 844 24.92 9.7 49.5 58 2 35.6
11:25 1015 29.97 844 24.92 9.6 49.3 60 2.4 36.3
11:30 1015 29.97 844 24.92 9.8 49.7 58 2.1 35.8
11:35 1015 29.97 844 24.92 9.9 49.7 59 2.3 36.1
11:40 1015 29.97 844 24.92 10 50 58 2.2 36
11:45 1015 29.97 844 24.92 10.2 50.3 58 2.4 36.4
11:50 1015 29.97 844 24.92 10.5 50.8 57 2.4 36.3
11:55 1015 29.97 844 24.92 10.2 50.4 58 2.4 36.3
12:00 1015 29.97 844 24.92 10.4 50.6 55 1.9 35.3
12:05 1015 29.97 844 24.92 10.3 50.6 57 2.3 36.2
12:10 1015 29.97 844 24.92 10.2 50.3 58 2.3 36.2
12:15 1015 29.97 844 24.92 9.8 49.6 60 2.3 36.2
12:20 1015 29.97 844 24.92 9.9 49.9 57 1.9 35.5
12:25 1015 29.97 844 24.92 9.8 49.6 60 2.3 36.1
12:30 1015 29.97 844 24.92 9.8 49.7 59 2.3 36.1
12:35 1015 29.97 844 24.92 9.6 49.3 60 2.2 36
12:40 1015 29.97 844 24.92 9.4 48.9 60 2 35.7
12:45 1015 29.97 844 24.92 9.3 48.8 61 2.1 35.8
12:50 1015 29.97 844 24.92 9.2 48.6 61 2.2 36
12:55 1015 29.97 844 24.92 9.3 48.7 61 2.2 36
13:00 1015 29.97 844 24.92 9.5 49.1 61 2.4 36.4
13:05 1015 29.97 844 24.92 9.4 49 62 2.6 36.6
13:10 1015 29.97 844 24.92 9.3 48.7 65 2.9 37.3
13:15 1015 29.97 844 24.92 9.1 48.3 64 2.7 36.9
13:20 1015 29.97 844 24.92 9 48.2 63 2.4 36.3
13:25 1015 29.97 844 24.92 9.1 48.4 62 2.2 35.9
13:30 1015 29.97 844 24.92 9.2 48.6 62 2.4 36.3
13:35 1015 29.97 844 24.92 9.2 48.6 61 2.2 36
13:40 1015 29.97 844 24.92 9.2 48.6 62 2.4 36.3
13:45 1015 29.97 844 24.92 9.2 48.6 61 2.2 36
13:50 1015 29.97 844 24.92 9.3 48.7 61 2.1 35.9
13:55 1015 29.97 844 24.92 9.4 48.9 61 2.2 36
14:00 1015 29.97 844 24.92 9.4 48.9 60 2 35.5
14:05 1015 29.97 844 24.92 9.4 48.9 59 1.9 35.5
14:10 1015 29.97 844 24.92 9.4 49 59 2 35.5
14:15 1015 29.97 844 24.92 9.3 48.8 60 2 35.6
14:20 1015 29.97 844 24.92 9.2 48.5 61 2.1 35.8
14:25 1015 29.97 844 24.92 9 48.2 63 2.4 36.4
14:30 1015 29.97 845 24.95 8.7 47.6 65 2.5 36.4
14:35 1015 29.97 845 24.95 8.4 47.1 69 3.2 37.7
14:40 1015 29.97 844 24.92 8.2 46.8 71 3.4 38.1
14:45 1015 29.97 844 24.92 8 46.4 72 3.3 37.9
14:50 1015 29.97 844 24.92 7.9 46.2 74 3.5 38.2
14:55 1015 29.97 844 24.92 7.9 46.2 75 3.7 38.7
15:00 1015 29.97 844 24.92 8 46.5 75 4 39.2
15:05 1015 29.97 844 24.92 8.1 46.6 76 4.1 39.4
15:10 1014 29.94 844 24.92 8.2 46.7 73 3.7 38.7
15:15 1014 29.94 843 24.89 8.4 47.1 76 4.4 40
15:20 1014 29.94 843 24.89 8.8 47.8 71 3.9 39
15:25 1014 29.94 843 24.89 8.9 48 70 3.7 38.7
15:30 1014 29.94 843 24.89 9.1 48.4 70 3.9 39.1
15:35 1014 29.94 844 24.92 9.1 48.4 68 3.5 38.2
15:40 1014 29.94 844 24.92 9.1 48.3 67 3.2 37.8
15:45 1014 29.94 844 24.92 9.1 48.3 67 3.4 38.1
15:50 1014 29.94 843 24.89 9 48.1 66 2.9 37.3
15:55 1014 29.94 843 24.89 9 48.1 65 2.9 37.1
16:00 1014 29.94 843 24.89 9.2 48.5 67 3.3 37.9
16:05 1014 29.94 843 24.89 9.2 48.6 65 3.1 37.5
16:10 1014 29.94 843 24.89 9 48.2 66 3.1 37.6
16:15 1014 29.94 843 24.89 8.8 47.8 70 3.7 38.6
16:20 1014 29.94 844 24.92 8.5 47.4 70 3.5 38.3
16:25 1014 29.94 844 24.92 8.2 46.7 73 3.5 38.4
16:30 1014 29.94 843 24.89 8.1 46.6 71 3.2 37.7
16:35 1014 29.94 843 24.89 8.1 46.5 72 3.4 38.1
16:40 1014 29.94 843 24.89 8 46.4 73 3.4 38.1
16:45 1014 29.94 844 24.92 7.9 46.2 72 3.2 37.8
16:50 1014 29.94 844 24.92 7.8 46.1 72 3 37.4
16:55 1014 29.94 844 24.92 7.6 45.7 73 3.1 37.5
17:00 1014 29.94 843 24.89 7.4 45.2 76 3.4 38.1
17:05 1014 29.94 844 24.92 7 44.6 78 3.5 38.2
17:10 1015 29.97 844 24.92 6.8 44.2 80 3.5 38.3
17:15 1015 29.97 844 24.92 6.7 44.1 79 3.3 38
17:20 1015 29.97 844 24.92 6.7 44.1 79 3.3 37.9
17:25 1015 29.97 844 24.92 6.7 44.1 80 3.5 38.3
17:30 1015 29.97 844 24.92 6.6 43.8 82 3.7 38.6
17:35 1015 29.97 844 24.92 6.5 43.7 80 3.3 38
17:40 1015 29.97 844 24.92 6.6 43.8 79 3.2 37.8
17:45 1015 29.97 844 24.92 6.6 43.9 79 3.2 37.8
17:50 1015 29.97 844 24.92 6.6 43.9 79 3.3 37.9
17:55 1015 29.97 844 24.92 6.5 43.7 78 2.9 37.2
18:00 1015 29.97 844 24.92 6.5 43.7 78 3 37.4
18:05 1015 29.97 844 24.92 6.4 43.6 79 3 37.4
18:10 1015 29.97 844 24.92 6.4 43.5 80 3.1 37.6
18:15 1015 29.97 844 24.92 6.2 43.2 82 3.3 38
18:20 1015 29.97 844 24.92 6.1 42.9 82 3.3 38
18:25 1015 29.97 844 24.92 6 42.7 81 3 37.4
18:30 1015 29.97 844 24.92 5.9 42.7 82 3.1 37.7
18:35 1014 29.94 844 24.92 5.9 42.6 81 3 37.3
18:40 1014 29.94 843 24.89 5.9 42.6 82 3.1 37.6
18:45 1014 29.94 843 24.89 5.8 42.5 82 3 37.3
18:50 1014 29.94 843 24.89 5.9 42.6 80 2.7 36.9
18:55 1014 29.94 843 24.89 5.9 42.7 79 2.6 36.7
19:00 1014 29.94 843 24.89 6 42.8 78 2.5 36.6
19:05 1014 29.94 843 24.89 6.1 42.9 78 2.5 36.4
19:10 1014 29.94 843 24.89 6.2 43.1 77 2.5 36.5
19:15 1014 29.94 844 24.92 6.2 43.1 77 2.5 36.6
19:20 1015 29.97 844 24.92 6.2 43.1 77 2.4 36.3
19:25 1015 29.97 844 24.92 6.2 43.2 77 2.5 36.5
19:30 1015 29.97 844 24.92 6.2 43.2 76 2.4 36.3
19:35 1015 29.97 844 24.92 6.2 43.2 77 2.5 36.6
19:40 1015 29.97 844 24.92 6.1 43 80 3 37.4
19:45 1015 29.97 844 24.92 5.9 42.6 82 3.1 37.6
19:50 1015 29.97 844 24.92 5.8 42.4 82 3 37.5
19:55 1015 29.97 845 24.95 5.8 42.4 83 3.1 37.6
20:00 1016 30 845 24.95 5.8 42.4 84 3.2 37.8
20:05 1016 30 845 24.95 5.8 42.5 81 2.9 37.2
20:10 1016 30 845 24.95 5.9 42.7 81 2.9 37.1
20:15 1015 29.97 845 24.95 5.9 42.6 83 3.1 37.6
20:20 1016 30 845 24.95 5.7 42.3 84 3.3 37.9
20:25 1016 30 845 24.95 5.6 42 85 3.3 38
20:30 1016 30 845 24.95 5.5 41.9 85 3.2 37.7
20:35 1016 30 845 24.95 5.4 41.6 85 3.1 37.6
20:40 1015 29.97 844 24.92 5.2 41.4 86 3 37.4
20:45 1014 29.94 844 24.92 5 41 88 3.1 37.6
20:50 1015 29.97 844 24.92 4.9 40.8 86 2.8 37
20:55 1015 29.97 844 24.92 4.9 40.8 85 2.5 36.6
21:00 1014 29.94 844 24.92 4.9 40.8 83 2.3 36.1
21:05 1015 29.97 844 24.92 4.9 40.9 83 2.3 36.1
21:10 1015 29.97 844 24.92 4.9 40.8 84 2.4 36.2
21:15 1015 29.97 844 24.92 4.8 40.6 83 2.1 35.8
21:20 1015 29.97 844 24.92 4.7 40.5 82 2 35.6
21:25 1015 29.97 844 24.92 4.7 40.5 81 1.7 35.1
21:30 1015 29.97 844 24.92 4.8 40.6 81 1.8 35.2
21:35 1015 29.97 844 24.92 4.9 40.7 80 1.7 35.1
21:40 1015 29.97 844 24.92 4.9 40.9 80 1.8 35.3
21:45 1015 29.97 844 24.92 4.9 40.9 80 1.8 35.3
21:50 1015 29.97 844 24.92 5 41 80 1.8 35.3
21:55 1015 29.97 844 24.92 5.1 41.2 80 1.9 35.4
22:00 1015 29.97 844 24.92 5.2 41.4 79 1.8 35.3
22:05 1015 29.97 844 24.92 5.4 41.7 78 1.9 35.4
22:10 1015 29.97 844 24.92 5.5 41.9 78 2 35.7
22:15 1015 29.97 844 24.92 5.6 42 78 2 35.6
22:20 1015 29.97 844 24.92 5.6 42.1 78 2 35.6
22:25 1015 29.97 844 24.92 5.6 42.2 78 2.2 35.9
22:30 1015 29.97 844 24.92 5.6 42.1 78 2.2 35.9
22:35 1014 29.94 844 24.92 5.7 42.2 79 2.3 36.1
22:40 1014 29.94 844 24.92 5.8 42.4 78 2.2 36
22:45 1014 29.94 844 24.92 5.8 42.4 79 2.3 36.2
22:50 1014 29.94 843 24.89 5.8 42.4 79 2.4 36.2
22:55 1014 29.94 843 24.89 5.8 42.4 79 2.5 36.4
23:00 1014 29.94 843 24.89 5.8 42.5 79 2.5 36.4
23:05 1014 29.94 843 24.89 5.8 42.5 78 2.4 36.3
23:10 1014 29.94 843 24.89 5.9 42.6 78 2.3 36.1
23:15 1014 29.94 843 24.89 6 42.8 77 2.3 36.1
23:20 1014 29.94 843 24.89 6.1 42.9 77 2.3 36.1
23:25 1014 29.94 843 24.89 6.1 43 76 2.3 36.1
23:30 1014 29.94 843 24.89 6.2 43.1 78 2.6 36.7
23:35 1014 29.94 844 24.92 6.1 43 78 2.6 36.6
23:40 1015 29.97 844 24.92 6.1 43 79 2.8 37
23:45 1015 29.97 844 24.92 6.1 43.1 79 2.7 36.9
23:50 1015 29.97 844 24.92 6.2 43.1 79 2.9 37.2
23:55 1015 29.97 844 24.92 6.2 43.1 78 2.7 36.8
24:00 1014 29.94 844 24.92 6.2 43.2 79 2.8 37.1